East Angus, Canada
Current Conditions -  °F | °C
As of 8:00 AM on Wednesday 22 Oct 2014 (Local Time) from CYSC Reporting Station
Light Rain Light Rain  
Wind Chill: 33°   Ceiling: 6000
Heat Index: 39°   Visibility: 9mi
Dew Point: 39°   Wind: 9mph
Humidity: 100%   Direction: 40°NE
Pressure: 30.23"   Gusts: NA
Location:  45.48°N, 71.67°W
Report Text: CYSC 221200Z AUTO 04008KT 9SM -RA OVC060 04/04 A3023 RMK PCPN 0.5MM PAST HR SLP246
Loading
Personal Weather Stations






























Interactive Weather Map
Tropical Storm Tracking
New forecast layout! Learn more

10-Day Weather Forecast

Advertisements
Track Severe Weather on mobile